Time;durP1;ratioP1;P1;durP2;ratioP2;P2;SDS_P1;SDS_P2;PMS_P1;PMS_P2;Temp;Humidity;BMP_temperature;BMP_pressure;BME280_temperature;BME280_humidity;BME280_pressure;Samples;Min_cycle;Max_cycle;Signal;HPM_P1;HPM_P2
2021/12/31 00:03:29;;;;;;;7.72;2.72;;;19.60;65.10;;;;;;10455652;27;20061;-55
2021/12/31 00:08:34;;;;;;;11.35;3.35;;;19.60;65.10;;;;;;10455531;28;20057;-56
2021/12/31 00:13:39;;;;;;;9.75;3.08;;;19.60;65.20;;;;;;10455946;28;20101;-55
2021/12/31 00:18:44;;;;;;;5.18;3.00;;;19.60;65.30;;;;;;10455720;28;20041;-56
2021/12/31 00:23:49;;;;;;;8.60;2.78;;;19.50;65.20;;;;;;10455589;28;20053;-56
2021/12/31 00:28:55;;;;;;;6.03;2.90;;;19.50;65.30;;;;;;10455878;28;20052;-56
2021/12/31 00:34:00;;;;;;;5.00;2.88;;;19.50;65.30;;;;;;10455577;28;20041;-55
2021/12/31 00:39:05;;;;;;;6.82;2.97;;;19.50;65.30;;;;;;10454700;28;20105;-55
2021/12/31 00:44:10;;;;;;;7.53;2.90;;;19.40;65.40;;;;;;10454988;28;20078;-55
2021/12/31 00:49:15;;;;;;;11.13;2.72;;;19.40;65.50;;;;;;10455240;28;20078;-55
2021/12/31 00:54:20;;;;;;;4.22;2.53;;;19.40;65.60;;;;;;10455057;28;20105;-56
2021/12/31 00:59:25;;;;;;;8.65;2.55;;;19.40;65.70;;;;;;10437984;28;20090;-56
2021/12/31 01:04:33;;;;;;;8.35;2.67;;;19.30;65.90;;;;;;10450250;28;20053;-56
2021/12/31 01:09:38;;;;;;;6.90;2.63;;;19.30;66.10;;;;;;10438259;28;20045;-56
2021/12/31 01:14:55;;;;;;;4.10;2.30;;;19.30;66.20;;;;;;10423602;28;20562;-55
2021/12/31 01:20:00;;;;;;;8.35;2.10;;;19.30;66.20;;;;;;10413007;28;20071;-55
2021/12/31 01:25:07;;;;;;;6.60;2.05;;;19.30;66.30;;;;;;10412289;28;20053;-54
2021/12/31 01:30:13;;;;;;;2.38;1.73;;;19.20;66.20;;;;;;10453212;28;20045;-55
2021/12/31 01:35:18;;;;;;;5.70;1.85;;;19.20;66.40;;;;;;10453514;28;20045;-56
2021/12/31 01:40:23;;;;;;;6.32;1.95;;;19.20;66.40;;;;;;10453316;28;20098;-56
2021/12/31 01:45:32;;;;;;;6.35;1.80;;;19.20;66.50;;;;;;10453738;28;20053;-56
2021/12/31 01:50:37;;;;;;;4.57;2.25;;;19.20;66.70;;;;;;10454317;28;20551;-55
2021/12/31 01:55:43;;;;;;;4.30;2.10;;;19.10;66.70;;;;;;10451222;28;20102;-56
2021/12/31 02:00:48;;;;;;;3.70;1.75;;;19.10;67.40;;;;;;10452865;28;20102;-56
2021/12/31 02:05:53;;;;;;;4.22;1.95;;;19.10;66.90;;;;;;10409962;28;20502;-56
2021/12/31 02:10:58;;;;;;;10.25;1.98;;;19.10;67.00;;;;;;10411026;28;20049;-56
2021/12/31 02:16:04;;;;;;;2.30;1.85;;;19.00;67.20;;;;;;10410787;28;20049;-55
2021/12/31 02:21:13;;;;;;;3.55;1.70;;;19.00;67.20;;;;;;10410457;28;20050;-56
2021/12/31 02:26:18;;;;;;;3.72;1.92;;;19.00;67.20;;;;;;10410597;28;20479;-56
2021/12/31 02:31:23;;;;;;;6.45;1.55;;;19.00;67.30;;;;;;10409395;28;20090;-56
2021/12/31 02:36:27;;;;;;;4.15;2.05;;;19.00;67.20;;;;;;10409897;28;20078;-55
2021/12/31 02:41:32;;;;;;;2.50;1.60;;;19.00;67.30;;;;;;10410125;28;20153;-55
2021/12/31 02:46:37;;;;;;;6.50;1.88;;;19.00;67.20;;;;;;10408897;28;20099;-57
2021/12/31 02:51:42;;;;;;;3.53;1.50;;;19.00;67.30;;;;;;10409417;28;20414;-56
2021/12/31 02:56:47;;;;;;;4.82;1.42;;;18.90;67.30;;;;;;10409496;28;20054;-56
2021/12/31 03:01:53;;;;;;;8.00;1.55;;;18.90;67.40;;;;;;10410083;28;20037;-56
2021/12/31 03:06:59;;;;;;;3.47;1.73;;;18.90;67.30;;;;;;10449506;28;20057;-56
2021/12/31 03:12:04;;;;;;;2.40;1.65;;;18.90;67.20;;;;;;10449901;28;20053;-56
2021/12/31 03:17:11;;;;;;;1.73;1.27;;;18.90;67.20;;;;;;10449908;28;20117;-56
2021/12/31 03:22:16;;;;;;;7.55;1.60;;;18.90;67.20;;;;;;10433287;28;20481;-56
2021/12/31 03:27:21;;;;;;;4.57;1.33;;;18.80;67.10;;;;;;10450217;28;20049;-56
2021/12/31 03:32:26;;;;;;;7.32;1.48;;;18.80;67.10;;;;;;10449290;28;20053;-56
2021/12/31 03:37:30;;;;;;;3.05;1.60;;;18.80;67.10;;;;;;10450044;28;20060;-56
2021/12/31 03:42:35;;;;;;;5.50;1.67;;;18.80;67.20;;;;;;10449068;28;20049;-56
2021/12/31 03:47:40;;;;;;;3.88;1.50;;;18.80;67.30;;;;;;10449508;28;20045;-56
2021/12/31 03:52:45;;;;;;;3.78;1.60;;;18.80;67.40;;;;;;10431460;28;20558;-56
2021/12/31 03:57:50;;;;;;;3.85;1.50;;;18.80;67.50;;;;;;10449252;28;20447;-57
2021/12/31 04:02:55;;;;;;;4.28;1.45;;;18.70;67.40;;;;;;10448217;27;20060;-55
2021/12/31 04:08:01;;;;;;;5.75;1.33;;;18.70;67.50;;;;;;10448524;28;20561;-56
2021/12/31 04:13:05;;;;;;;2.05;1.25;;;18.70;67.40;;;;;;10449738;28;20501;-56
2021/12/31 04:18:10;;;;;;;3.08;1.27;;;18.80;67.60;;;;;;10450502;28;20045;-55
2021/12/31 04:23:27;;;;;;;5.35;1.40;;;18.90;67.60;;;;;;10455178;28;20041;-53
2021/12/31 04:28:32;;;;;;;5.88;1.20;;;18.90;67.50;;;;;;10456158;28;20044;-54
2021/12/31 04:33:37;;;;;;;1.85;1.02;;;19.00;67.40;;;;;;10454847;28;20546;-56
2021/12/31 04:38:42;;;;;;;1.52;0.70;;;19.10;67.20;;;;;;10456392;28;20542;-56
2021/12/31 04:43:46;;;;;;;4.55;0.90;;;19.20;67.20;;;;;;10455902;28;20067;-55
2021/12/31 04:48:51;;;;;;;2.15;1.08;;;19.30;67.00;;;;;;10455401;28;20058;-55
2021/12/31 04:53:56;;;;;;;14.25;0.95;;;19.40;66.90;;;;;;10454331;28;20098;-54
2021/12/31 04:59:01;;;;;;;4.78;1.08;;;19.50;66.80;;;;;;10455143;28;20487;-55
2021/12/31 05:04:06;;;;;;;2.90;1.13;;;19.60;66.70;;;;;;10454555;27;20079;-56
2021/12/31 05:09:12;;;;;;;1.58;1.00;;;19.70;66.50;;;;;;10454484;28;20037;-56
2021/12/31 05:14:17;;;;;;;2.47;0.88;;;19.80;66.30;;;;;;10453858;28;20464;-55
2021/12/31 05:19:22;;;;;;;0.70;0.60;;;19.90;66.30;;;;;;10454363;28;20052;-56
2021/12/31 05:24:27;;;;;;;1.45;0.65;;;19.90;66.20;;;;;;10453389;28;20106;-54
2021/12/31 05:29:33;;;;;;;5.05;0.75;;;20.00;66.20;;;;;;10453894;28;20057;-55
2021/12/31 05:34:38;;;;;;;2.47;0.93;;;20.00;66.00;;;;;;10453013;28;20045;-57
2021/12/31 05:39:44;;;;;;;3.97;0.90;;;20.10;66.00;;;;;;10453464;28;20045;-57
2021/12/31 05:44:49;;;;;;;16.58;0.90;;;20.20;66.00;;;;;;10452656;28;20098;-57
2021/12/31 05:49:54;;;;;;;1.85;0.82;;;20.20;65.90;;;;;;10452532;28;20094;-57
2021/12/31 05:54:59;;;;;;;2.15;1.00;;;20.30;65.80;;;;;;10453073;28;20577;-55
2021/12/31 06:00:06;;;;;;;2.67;0.68;;;20.30;65.80;;;;;;10452546;28;20386;-57
2021/12/31 06:05:11;;;;;;;2.78;0.60;;;20.40;65.80;;;;;;10453168;27;20467;-57
2021/12/31 06:10:16;;;;;;;4.97;0.70;;;20.40;65.80;;;;;;10435260;28;20094;-55
2021/12/31 06:15:21;;;;;;;7.50;0.82;;;20.50;65.80;;;;;;10451505;28;20053;-56
2021/12/31 06:20:28;;;;;;;13.95;1.08;;;20.50;65.70;;;;;;10451335;28;20477;-56
2021/12/31 06:25:33;;;;;;;5.73;0.90;;;20.50;65.70;;;;;;10452197;28;20383;-56
2021/12/31 06:30:39;;;;;;;7.53;0.70;;;20.60;65.70;;;;;;10451229;28;20041;-56
2021/12/31 06:35:44;;;;;;;3.45;0.88;;;20.70;65.70;;;;;;10451347;28;20446;-55
2021/12/31 06:40:49;;;;;;;11.85;1.02;;;20.70;65.60;;;;;;10449821;28;20045;-55
2021/12/31 06:45:53;;;;;;;2.10;0.70;;;20.70;65.50;;;;;;10451383;28;20053;-55
2021/12/31 06:50:58;;;;;;;6.70;0.68;;;20.80;65.50;;;;;;10450353;28;20106;-56
2021/12/31 06:56:04;;;;;;;6.05;0.60;;;20.80;65.60;;;;;;10450353;28;20113;-57
2021/12/31 07:01:09;;;;;;;0.85;0.73;;;20.80;65.70;;;;;;10451231;28;20037;-54
2021/12/31 07:06:14;;;;;;;1.42;0.60;;;20.70;65.70;;;;;;10450639;27;20060;-55
2021/12/31 07:11:22;;;;;;;1.00;0.60;;;20.70;65.70;;;;;;10449905;28;20078;-56
2021/12/31 07:16:26;;;;;;;2.60;0.75;;;20.70;65.70;;;;;;10450903;28;20108;-56
2021/12/31 07:21:31;;;;;;;0.93;0.77;;;20.60;65.70;;;;;;10433563;28;20488;-55
2021/12/31 07:26:36;;;;;;;1.38;0.63;;;20.70;65.70;;;;;;10449553;28;20489;-55
2021/12/31 07:31:41;;;;;;;3.22;0.50;;;20.70;65.70;;;;;;10431639;28;20045;-55
2021/12/31 07:36:47;;;;;;;5.03;0.80;;;20.70;65.70;;;;;;10450097;28;20070;-56
2021/12/31 07:41:52;;;;;;;6.55;0.90;;;20.60;65.70;;;;;;10450362;28;20137;-57
2021/12/31 07:47:09;;;;;;;1.23;0.60;;;20.60;65.80;;;;;;10433450;28;20053;-55
2021/12/31 07:52:14;;;;;;;14.13;1.00;;;20.50;65.80;;;;;;10449734;28;20090;-56
2021/12/31 07:57:19;;;;;;;17.77;0.60;;;20.50;65.80;;;;;;10454145;28;20045;-55
2021/12/31 08:02:25;;;;;;;4.68;0.57;;;20.40;66.00;;;;;;10452714;27;20078;-57
2021/12/31 08:07:34;;;;;;;3.45;0.88;;;20.40;66.00;;;;;;10455453;28;20397;-57
2021/12/31 08:12:39;;;;;;;5.70;0.82;;;20.30;66.00;;;;;;10454560;28;20101;-55
2021/12/31 08:17:44;;;;;;;2.45;0.60;;;20.30;66.10;;;;;;10455992;28;20053;-56
2021/12/31 08:22:50;;;;;;;8.05;1.00;;;20.30;66.20;;;;;;10457257;28;20074;-57
2021/12/31 08:27:57;;;;;;;;;;;20.30;66.20;;;;;;10463812;28;20045;-57
2021/12/31 08:33:02;;;;;;;8.98;1.00;;;20.30;66.30;;;;;;10453102;28;20388;-57
2021/12/31 08:38:07;;;;;;;9.75;1.08;;;20.30;66.50;;;;;;10455137;28;20110;-55
2021/12/31 08:43:13;;;;;;;5.85;0.85;;;20.30;66.60;;;;;;10454884;28;20053;-55
2021/12/31 08:48:18;;;;;;;7.28;0.80;;;20.30;66.70;;;;;;10454603;28;20543;-55
2021/12/31 08:53:24;;;;;;;8.13;1.20;;;20.20;66.70;;;;;;10451985;28;20045;-55
2021/12/31 08:58:29;;;;;;;8.88;1.33;;;20.20;66.70;;;;;;10454091;28;20041;-56
2021/12/31 09:03:34;;;;;;;7.78;1.75;;;20.20;66.70;;;;;;10454337;27;20121;-55
2021/12/31 09:08:39;;;;;;;5.45;1.63;;;20.20;66.80;;;;;;10455208;28;20041;-54
2021/12/31 09:13:47;;;;;;;2.70;1.10;;;20.20;66.80;;;;;;10438827;28;20045;-56
2021/12/31 09:18:52;;;;;;;11.77;1.52;;;20.20;66.80;;;;;;10454849;28;20049;-55
2021/12/31 09:23:58;;;;;;;7.00;1.40;;;20.20;66.90;;;;;;10455593;28;20052;-56
2021/12/31 09:29:04;;;;;;;2.80;1.40;;;20.10;66.90;;;;;;10455579;28;20117;-54
2021/12/31 09:34:09;;;;;;;9.93;1.40;;;20.10;66.90;;;;;;10455167;28;20045;-55
2021/12/31 09:39:15;;;;;;;4.43;1.50;;;20.10;66.90;;;;;;10454230;28;20049;-55
2021/12/31 09:44:22;;;;;;;3.85;1.70;;;20.10;66.90;;;;;;10453947;28;20045;-55
2021/12/31 09:49:28;;;;;;;4.68;1.52;;;20.10;66.90;;;;;;10454791;28;20485;-55
2021/12/31 09:54:33;;;;;;;5.07;1.45;;;20.10;66.90;;;;;;10452352;28;20089;-57
2021/12/31 09:59:40;;;;;;;151.30;27.20;;;20.10;67.00;;;;;;10448324;28;20045;-56
2021/12/31 10:04:56;;;;;;;118.53;22.90;;;20.10;67.00;;;;;;10451822;27;20569;-56
2021/12/31 10:10:11;;;;;;;84.53;15.57;;;20.00;67.00;;;;;;10453626;28;20082;-57
2021/12/31 10:15:18;;;;;;;41.58;9.70;;;19.90;67.10;;;;;;10450262;28;20048;-56
2021/12/31 10:20:23;;;;;;;26.03;6.13;;;19.90;67.10;;;;;;10453010;28;20041;-55
2021/12/31 10:25:30;;;;;;;22.92;4.55;;;19.80;67.00;;;;;;10451748;28;20068;-56
2021/12/31 10:30:35;;;;;;;7.82;1.98;;;19.80;67.00;;;;;;10451321;28;20057;-56
2021/12/31 10:35:44;;;;;;;7.63;2.00;;;19.70;66.90;;;;;;10433579;28;20057;-53
2021/12/31 10:40:49;;;;;;;4.53;1.52;;;19.70;66.90;;;;;;10450870;28;20058;-51
2021/12/31 10:46:00;;;;;;;4.75;1.23;;;19.70;67.00;;;;;;10451416;28;20049;-51
2021/12/31 10:51:06;;;;;;;2.55;0.80;;;19.70;67.00;;;;;;10433788;28;20049;-49
2021/12/31 10:56:14;;;;;;;1.40;0.52;;;19.70;66.90;;;;;;10451172;28;20382;-53
2021/12/31 11:01:18;;;;;;;0.50;0.30;;;19.80;66.90;;;;;;10451128;28;20049;-53
2021/12/31 11:06:24;;;;;;;2.33;0.40;;;19.80;66.80;;;;;;10449987;27;20061;-54
2021/12/31 11:11:29;;;;;;;0.45;0.40;;;19.90;66.70;;;;;;10415979;28;20048;-51
2021/12/31 11:16:38;;;;;;;0.82;0.32;;;20.00;66.40;;;;;;10450363;28;20074;-53
2021/12/31 11:21:47;;;;;;;0.73;0.43;;;20.10;66.30;;;;;;10450679;28;20045;-54
2021/12/31 11:26:52;;;;;;;1.75;0.50;;;20.20;66.20;;;;;;10452474;28;20086;-52
2021/12/31 11:31:57;;;;;;;1.13;0.50;;;20.20;66.10;;;;;;10458577;28;20041;-52
2021/12/31 11:37:02;;;;;;;0.88;0.50;;;20.30;65.90;;;;;;10457256;28;20509;-52
2021/12/31 11:42:08;;;;;;;1.17;0.60;;;20.40;65.80;;;;;;10457092;28;20045;-52
2021/12/31 11:47:14;;;;;;;0.82;0.50;;;20.50;65.70;;;;;;10457212;28;20045;-51
2021/12/31 11:52:23;;;;;;;0.60;0.60;;;20.50;65.60;;;;;;10456413;28;20045;-52
2021/12/31 11:57:32;;;;;;;0.50;0.50;;;20.60;65.50;;;;;;10456050;28;20048;-54
2021/12/31 12:02:40;;;;;;;1.42;0.68;;;20.60;65.50;;;;;;10455611;27;20045;-54
2021/12/31 12:07:52;;;;;;;0.57;0.43;;;20.60;65.40;;;;;;10456371;28;20045;-54
2021/12/31 12:13:25;;;;;;;0.55;0.50;;;20.60;65.30;;;;;;10455736;28;20053;-52
2021/12/31 12:18:53;;;;;;;0.40;0.40;;;20.60;65.30;;;;;;10456041;28;20048;-51
2021/12/31 12:23:58;;;;;;;0.50;0.47;;;20.60;65.20;;;;;;10455467;28;20117;-51
2021/12/31 12:29:03;;;;;;;2.10;0.73;;;20.60;65.20;;;;;;10454882;28;20057;-51
2021/12/31 12:34:08;;;;;;;0.40;0.40;;;20.60;65.10;;;;;;10438268;28;20052;-51
2021/12/31 12:39:13;;;;;;;1.33;0.75;;;20.70;65.20;;;;;;10454825;28;20049;-52
2021/12/31 12:44:19;;;;;;;0.60;0.50;;;20.60;65.10;;;;;;10455604;28;20045;-53
2021/12/31 12:49:29;;;;;;;0.70;0.60;;;20.60;65.10;;;;;;10454446;28;20049;-51
2021/12/31 12:54:33;;;;;;;1.23;0.60;;;20.60;65.10;;;;;;10454437;28;20420;-52
2021/12/31 12:59:42;;;;;;;0.60;0.60;;;20.60;65.00;;;;;;10455662;28;20481;-50
2021/12/31 13:04:48;;;;;;;1.20;1.10;;;20.60;65.00;;;;;;10437271;28;20053;-52
2021/12/31 13:10:04;;;;;;;1.52;1.00;;;20.60;65.00;;;;;;10436358;28;20078;-51
2021/12/31 13:15:09;;;;;;;8.45;2.40;;;20.50;64.90;;;;;;10436241;28;20057;-55
2021/12/31 13:20:21;;;;;;;15.98;3.13;;;20.40;65.20;;;;;;10447409;28;20045;-55
2021/12/31 13:25:45;;;;;;;32.03;6.55;;;20.30;65.60;;;;;;10434117;28;20101;-54
2021/12/31 13:31:08;;;;;;;41.00;10.40;;;20.30;66.10;;;;;;10453957;28;20041;-54
2021/12/31 13:36:17;;;;;;;51.75;11.43;;;20.30;66.70;;;;;;10452877;28;20041;-55
2021/12/31 13:41:22;;;;;;;35.97;9.75;;;20.20;67.00;;;;;;10452359;28;20440;-54
2021/12/31 13:46:56;;;;;;;25.67;10.15;;;20.10;67.30;;;;;;10452493;28;20493;-56
2021/12/31 13:52:26;;;;;;;27.63;7.82;;;20.10;67.30;;;;;;10453247;28;20056;-56
2021/12/31 13:57:32;;;;;;;23.77;8.70;;;20.00;67.60;;;;;;10444890;28;20035;-53
2021/12/31 14:02:40;;;;;;;27.20;7.22;;;20.00;67.50;;;;;;10449513;28;20105;-55
2021/12/31 14:12:03;;;;;;;84.60;17.05;;;20.00;70.30;;;;;;10658260;27;20115;-53
2021/12/31 14:17:11;;;;;;;60.80;15.85;;;20.00;68.10;;;;;;10618072;28;20043;-52
2021/12/31 14:22:16;;;;;;;44.03;11.40;;;19.90;67.80;;;;;;10617969;28;20515;-53
2021/12/31 14:27:20;;;;;;;37.30;10.23;;;19.80;67.80;;;;;;10618221;28;20042;-52
2021/12/31 14:32:25;;;;;;;38.13;9.63;;;19.80;67.90;;;;;;10599606;28;20043;-52
2021/12/31 14:37:30;;;;;;;33.20;8.93;;;19.70;67.90;;;;;;10619228;28;20061;-54
2021/12/31 14:42:35;;;;;;;32.97;8.70;;;19.70;67.90;;;;;;10617273;28;20048;-52
2021/12/31 14:47:42;;;;;;;35.50;8.77;;;19.70;67.90;;;;;;10617504;28;20043;-53
2021/12/31 14:52:53;;;;;;;29.35;9.15;;;19.60;67.90;;;;;;10616430;28;20052;-53
2021/12/31 14:57:59;;;;;;;29.33;9.05;;;19.50;67.90;;;;;;10616683;28;20050;-54
2021/12/31 15:03:03;;;;;;;33.83;10.02;;;19.50;68.00;;;;;;10616835;28;20105;-54
2021/12/31 15:08:09;;;;;;;27.40;8.93;;;19.50;68.40;;;;;;10599067;28;20047;-52
2021/12/31 15:13:14;;;;;;;34.90;10.10;;;19.50;68.20;;;;;;10615821;28;20092;-51
2021/12/31 15:18:19;;;;;;;32.38;9.18;;;19.50;68.40;;;;;;10615940;28;20051;-50
2021/12/31 15:23:24;;;;;;;33.67;8.48;;;19.40;68.40;;;;;;10587142;28;20377;-52
2021/12/31 15:28:29;;;;;;;24.83;7.80;;;19.40;68.30;;;;;;10588427;28;20083;-49
2021/12/31 15:33:34;;;;;;;23.33;7.85;;;19.40;68.20;;;;;;10586658;28;20492;-54
2021/12/31 15:38:39;;;;;;;21.38;7.60;;;19.40;68.40;;;;;;10586688;28;20055;-51
2021/12/31 15:43:44;;;;;;;21.50;7.60;;;19.40;68.30;;;;;;10587076;28;20438;-53
2021/12/31 15:48:49;;;;;;;22.20;7.40;;;19.50;68.30;;;;;;10568994;28;20480;-53
2021/12/31 15:53:56;;;;;;;19.05;8.35;;;19.50;68.30;;;;;;10586149;28;20048;-53
2021/12/31 15:59:00;;;;;;;20.02;8.00;;;19.60;68.40;;;;;;10567941;28;20389;-52
2021/12/31 16:04:05;;;;;;;21.08;6.93;;;19.60;68.40;;;;;;10585757;28;20100;-53
2021/12/31 16:09:10;;;;;;;16.13;6.57;;;19.70;68.30;;;;;;10585400;28;20051;-53
2021/12/31 16:14:15;;;;;;;19.23;5.93;;;19.70;68.40;;;;;;10586554;28;20100;-51
2021/12/31 16:19:20;;;;;;;16.60;5.95;;;19.80;68.40;;;;;;10585001;28;20051;-53
2021/12/31 16:24:29;;;;;;;17.83;7.13;;;19.80;68.40;;;;;;10575209;28;20189;-52
2021/12/31 16:29:48;;;;;;;14.02;5.65;;;19.90;68.50;;;;;;10584775;28;20069;-50
2021/12/31 16:35:05;;;;;;;19.23;5.70;;;20.00;68.80;;;;;;10583529;28;20455;-49
2021/12/31 16:40:16;;;;;;;19.10;5.78;;;20.00;68.70;;;;;;10577809;28;20048;-50
2021/12/31 16:45:21;;;;;;;18.83;5.90;;;20.10;68.80;;;;;;10561727;28;20105;-50
2021/12/31 16:50:26;;;;;;;14.82;5.10;;;20.20;68.90;;;;;;10562689;28;20048;-52
2021/12/31 16:55:31;;;;;;;19.35;5.72;;;20.20;69.00;;;;;;10543234;28;20044;-50
2021/12/31 17:00:36;;;;;;;19.90;4.93;;;20.30;68.90;;;;;;10543897;28;20052;-48
2021/12/31 17:05:41;;;;;;;11.02;4.38;;;20.50;68.80;;;;;;10561383;28;20047;-51
2021/12/31 17:10:46;;;;;;;13.70;4.60;;;20.60;68.70;;;;;;10562272;28;20055;-52
2021/12/31 17:15:51;;;;;;;22.15;4.53;;;20.70;68.70;;;;;;10578763;28;20052;-48
2021/12/31 17:20:56;;;;;;;18.10;4.93;;;20.70;68.60;;;;;;10543943;28;20073;-49
2021/12/31 17:26:01;;;;;;;23.75;5.18;;;20.80;69.10;;;;;;10529305;28;20463;-47
2021/12/31 17:31:06;;;;;;;15.25;4.28;;;20.80;68.70;;;;;;10559252;28;20048;-49
2021/12/31 17:36:11;;;;;;;15.57;4.50;;;20.80;68.50;;;;;;10579914;28;20052;-49
2021/12/31 17:41:16;;;;;;;14.90;3.80;;;20.90;68.40;;;;;;10581519;28;20048;-49
2021/12/31 17:46:21;;;;;;;10.85;3.42;;;20.90;68.20;;;;;;10581629;28;20476;-49
2021/12/31 17:51:26;;;;;;;9.07;3.10;;;20.90;68.00;;;;;;10581563;28;20047;-48
2021/12/31 17:56:32;;;;;;;9.45;3.63;;;20.90;67.80;;;;;;10581583;28;20477;-49
2021/12/31 18:01:37;;;;;;;10.48;3.50;;;20.90;67.60;;;;;;10581526;28;20048;-49
2021/12/31 18:06:42;;;;;;;6.28;3.17;;;20.90;67.50;;;;;;10582404;28;20167;-49
2021/12/31 18:11:47;;;;;;;13.95;4.10;;;20.80;67.30;;;;;;10582708;28;20533;-49
2021/12/31 18:16:52;;;;;;;8.43;3.25;;;20.80;67.20;;;;;;10580787;28;20048;-50
2021/12/31 18:21:57;;;;;;;7.55;3.30;;;20.80;67.10;;;;;;10580917;28;20069;-49
2021/12/31 18:27:03;;;;;;;4.57;2.40;;;20.80;67.10;;;;;;10581452;28;20048;-48
2021/12/31 18:32:08;;;;;;;5.30;2.50;;;20.80;67.00;;;;;;10563401;28;20183;-50
2021/12/31 18:37:13;;;;;;;4.85;2.67;;;20.70;66.90;;;;;;10580752;28;20056;-53
2021/12/31 18:42:18;;;;;;;5.20;2.67;;;20.70;66.90;;;;;;10580577;28;20465;-48
2021/12/31 18:47:23;;;;;;;5.45;2.65;;;20.60;66.80;;;;;;10580576;28;20051;-49
2021/12/31 18:52:28;;;;;;;6.25;2.47;;;20.60;66.80;;;;;;10580377;28;20097;-48
2021/12/31 18:57:33;;;;;;;5.47;2.55;;;20.60;66.80;;;;;;10586041;28;20093;-51
2021/12/31 19:02:38;;;;;;;3.70;2.38;;;20.50;66.70;;;;;;10588322;28;20044;-50
2021/12/31 19:07:44;;;;;;;4.75;2.65;;;20.50;67.30;;;;;;10587915;28;20059;-49
2021/12/31 19:12:49;;;;;;;6.43;2.50;;;20.50;66.70;;;;;;10588023;28;20044;-48
2021/12/31 19:17:54;;;;;;;5.35;2.83;;;20.40;66.70;;;;;;10587644;28;20047;-50
2021/12/31 19:22:59;;;;;;;5.05;2.47;;;20.40;66.70;;;;;;10587344;28;20051;-50
2021/12/31 19:28:04;;;;;;;3.22;1.90;;;20.40;66.70;;;;;;10587268;28;20059;-50
2021/12/31 19:33:11;;;;;;;3.72;2.10;;;20.30;66.70;;;;;;10586907;28;20093;-49
2021/12/31 19:38:16;;;;;;;5.45;2.42;;;20.30;66.70;;;;;;10586942;28;20047;-49
2021/12/31 19:43:22;;;;;;;4.68;2.15;;;20.30;66.80;;;;;;10586452;28;20043;-48
2021/12/31 19:48:26;;;;;;;3.83;2.40;;;20.20;66.70;;;;;;10586290;28;20052;-48
2021/12/31 19:53:31;;;;;;;3.05;1.85;;;20.20;66.70;;;;;;10586942;28;20043;-49
2021/12/31 19:58:36;;;;;;;3.70;1.95;;;20.10;66.70;;;;;;10585957;28;20492;-49
2021/12/31 20:03:41;;;;;;;3.70;2.08;;;20.10;66.60;;;;;;10586842;28;20048;-49
2021/12/31 20:08:46;;;;;;;2.78;1.85;;;20.10;66.70;;;;;;10567250;28;20557;-50
2021/12/31 20:13:52;;;;;;;2.70;1.67;;;20.10;66.70;;;;;;10585581;28;20052;-49
2021/12/31 20:18:57;;;;;;;2.85;1.52;;;20.10;66.70;;;;;;10585188;28;20105;-49
2021/12/31 20:24:02;;;;;;;3.95;2.17;;;20.10;66.70;;;;;;10584918;28;20056;-49
2021/12/31 20:29:08;;;;;;;2.30;1.45;;;20.00;66.70;;;;;;10585210;28;20047;-48
2021/12/31 20:34:13;;;;;;;2.45;1.75;;;20.00;66.70;;;;;;10584515;28;20055;-49
2021/12/31 20:39:18;;;;;;;2.92;1.70;;;20.00;66.70;;;;;;10584403;28;20055;-49
2021/12/31 20:44:22;;;;;;;4.28;2.08;;;19.90;66.70;;;;;;10585256;28;20051;-48
2021/12/31 20:49:28;;;;;;;2.88;1.80;;;19.90;66.60;;;;;;10583811;28;20092;-48
2021/12/31 20:54:33;;;;;;;3.53;2.20;;;19.90;66.60;;;;;;10583662;28;20053;-49
2021/12/31 20:59:40;;;;;;;4.28;2.38;;;19.90;66.60;;;;;;10583394;28;20093;-50
2021/12/31 21:04:45;;;;;;;6.88;2.70;;;19.90;66.60;;;;;;10585352;28;20101;-49
2021/12/31 21:09:49;;;;;;;4.90;3.17;;;19.90;66.70;;;;;;10582754;28;20051;-49
2021/12/31 21:14:54;;;;;;;5.22;3.40;;;19.80;66.60;;;;;;10582990;28;20052;-49
2021/12/31 21:20:00;;;;;;;5.53;3.65;;;19.80;66.60;;;;;;10564523;28;20092;-48
2021/12/31 21:25:06;;;;;;;6.88;3.67;;;19.80;66.60;;;;;;10582512;28;20101;-48
2021/12/31 21:30:11;;;;;;;5.13;3.22;;;19.80;66.70;;;;;;10582261;28;20044;-49
2021/12/31 21:35:16;;;;;;;4.95;2.97;;;19.70;66.60;;;;;;10582190;28;20081;-49
2021/12/31 21:40:21;;;;;;;4.35;2.75;;;19.80;67.00;;;;;;10582056;28;20059;-49
2021/12/31 21:45:26;;;;;;;4.30;2.90;;;19.70;66.70;;;;;;10581735;28;20055;-48
2021/12/31 21:50:31;;;;;;;4.70;2.80;;;19.70;66.60;;;;;;10581707;28;20054;-49
2021/12/31 21:55:36;;;;;;;5.25;2.97;;;19.60;66.60;;;;;;10581659;28;20051;-50
2021/12/31 22:00:42;;;;;;;3.90;2.13;;;19.60;66.60;;;;;;10581423;28;20073;-48
2021/12/31 22:05:47;;;;;;;4.90;3.10;;;19.60;66.60;;;;;;10582697;28;20097;-50
2021/12/31 22:10:52;;;;;;;3.10;2.33;;;19.60;66.60;;;;;;10580825;28;20052;-49
2021/12/31 22:15:58;;;;;;;3.60;2.35;;;19.60;66.60;;;;;;10581145;28;20051;-48
2021/12/31 22:21:02;;;;;;;3.47;2.42;;;19.50;66.60;;;;;;10581047;28;20446;-48
2021/12/31 22:26:08;;;;;;;3.22;2.20;;;19.50;66.60;;;;;;10580992;28;20048;-49
2021/12/31 22:31:13;;;;;;;3.55;2.40;;;19.50;66.70;;;;;;10584666;28;20058;-49
2021/12/31 22:36:18;;;;;;;3.38;2.33;;;19.50;66.70;;;;;;10589126;28;20048;-48
2021/12/31 22:41:23;;;;;;;2.67;2.00;;;19.50;67.30;;;;;;10589320;28;20043;-48
2021/12/31 22:46:28;;;;;;;3.33;2.10;;;19.50;66.70;;;;;;10589470;28;20055;-49
2021/12/31 22:51:34;;;;;;;3.75;2.15;;;19.50;66.70;;;;;;10589291;28;20040;-48
2021/12/31 22:56:39;;;;;;;2.05;1.60;;;19.40;66.70;;;;;;10588517;28;20055;-48
2021/12/31 23:01:44;;;;;;;3.45;2.00;;;19.40;66.70;;;;;;10589602;28;20047;-49
2021/12/31 23:06:49;;;;;;;8.25;5.78;;;19.40;66.60;;;;;;10588100;28;20205;-48
2021/12/31 23:11:54;;;;;;;6.53;4.93;;;19.40;66.60;;;;;;10588281;28;20043;-48
2021/12/31 23:17:00;;;;;;;8.40;5.65;;;19.40;66.70;;;;;;10587629;28;20048;-48
2021/12/31 23:22:04;;;;;;;11.70;7.30;;;19.40;66.60;;;;;;10587454;28;20093;-49
2021/12/31 23:27:13;;;;;;;12.85;7.97;;;19.30;66.60;;;;;;10587912;28;20051;-48
2021/12/31 23:32:19;;;;;;;15.25;9.60;;;19.30;66.60;;;;;;10587310;28;20051;-49
2021/12/31 23:37:24;;;;;;;13.05;9.27;;;19.30;66.60;;;;;;10587970;28;20048;-48
2021/12/31 23:42:38;;;;;;;13.85;8.95;;;19.30;66.60;;;;;;10586422;28;20051;-49
2021/12/31 23:47:43;;;;;;;14.60;9.88;;;19.30;66.50;;;;;;10586773;28;20537;-49
2021/12/31 23:52:48;;;;;;;13.18;8.85;;;19.20;66.40;;;;;;10586743;28;20044;-49
2021/12/31 23:57:53;;;;;;;13.63;9.30;;;19.20;66.40;;;;;;10585917;28;20047;-48
